createdAt,value
2023-01-20T00:01:43.462Z,8.87
2023-01-20T00:04:10.638Z,8.92
2023-01-20T00:06:37.738Z,8.83
2023-01-20T00:09:06.032Z,8.86
2023-01-20T00:11:33.602Z,8.88
2023-01-20T00:14:02.491Z,8.92
2023-01-20T00:16:32.250Z,8.95
2023-01-20T00:18:59.429Z,8.93
2023-01-20T00:21:26.944Z,8.86
2023-01-20T00:23:54.387Z,8.77
2023-01-20T00:26:24.171Z,8.80
2023-01-20T00:28:54.499Z,8.85
2023-01-20T00:31:24.641Z,8.89
2023-01-20T00:33:53.310Z,8.79
2023-01-20T00:36:21.434Z,8.92
2023-01-20T00:38:50.077Z,8.91
2023-01-20T00:41:17.724Z,8.89
2023-01-20T00:43:45.468Z,8.96
2023-01-20T00:46:12.900Z,8.85
2023-01-20T00:48:40.081Z,8.86
2023-01-20T00:51:08.578Z,8.93
2023-01-20T00:53:35.662Z,8.84
2023-01-20T00:56:02.682Z,8.84
2023-01-20T00:58:29.649Z,8.90
2023-01-20T01:00:57.735Z,8.78
2023-01-20T01:03:25.094Z,8.67
2023-01-20T01:05:51.986Z,8.60
2023-01-20T01:08:19.294Z,8.57
2023-01-20T01:10:46.370Z,8.55
2023-01-20T01:13:13.312Z,8.49
2023-01-20T01:15:40.228Z,8.49
2023-01-20T01:18:07.234Z,8.47
2023-01-20T01:20:39.353Z,8.39
2023-01-20T01:23:06.392Z,8.46
2023-01-20T01:25:33.428Z,8.50
2023-01-20T01:28:00.316Z,8.55
2023-01-20T01:30:27.179Z,8.58
2023-01-20T01:32:54.388Z,8.57
2023-01-20T01:35:21.379Z,8.57
2023-01-20T01:37:48.250Z,8.58
2023-01-20T01:40:15.406Z,8.53
2023-01-20T01:42:42.980Z,8.51
2023-01-20T01:45:13.752Z,8.48
2023-01-20T01:48:05.159Z,8.42
2023-01-20T01:50:47.422Z,8.34
2023-01-20T01:53:15.634Z,8.27
2023-01-20T01:55:49.841Z,8.17
2023-01-20T01:58:19.686Z,8.10
2023-01-20T02:00:47.417Z,8.03
2023-01-20T02:03:14.696Z,8.05
2023-01-20T02:05:43.747Z,8.02
2023-01-20T02:08:10.818Z,8.06
2023-01-20T02:10:37.772Z,8.00
2023-01-20T02:13:05.579Z,7.97
2023-01-20T02:15:42.256Z,7.95
2023-01-20T02:18:23.324Z,7.91
2023-01-20T02:20:56.017Z,7.83
2023-01-20T02:23:41.450Z,7.83
2023-01-20T02:26:24.344Z,7.76
2023-01-20T02:29:14.524Z,7.69
2023-01-20T02:32:02.734Z,7.51
2023-01-20T02:34:36.461Z,7.60
2023-01-20T02:37:13.104Z,7.61
2023-01-20T02:40:28.109Z,7.75
2023-01-20T02:43:02.510Z,7.72
2023-01-20T02:45:36.211Z,7.78
2023-01-20T02:48:11.440Z,7.68
2023-01-20T02:51:01.388Z,7.62
2023-01-20T02:53:36.232Z,7.64
2023-01-20T02:56:04.866Z,7.66
2023-01-20T02:58:45.221Z,7.64
2023-01-20T03:01:25.268Z,7.64
2023-01-20T03:03:55.392Z,7.68
2023-01-20T03:06:25.762Z,7.73
2023-01-20T03:08:56.213Z,7.71
2023-01-20T03:11:23.184Z,7.64
2023-01-20T03:14:13.138Z,7.68
2023-01-20T03:16:40.853Z,7.66
2023-01-20T03:19:08.189Z,7.62
2023-01-20T03:21:35.322Z,7.66
2023-01-20T03:24:04.850Z,7.58
2023-01-20T03:26:32.024Z,7.49
2023-01-20T03:29:03.007Z,7.47
2023-01-20T03:31:36.276Z,7.51
2023-01-20T03:34:11.156Z,7.53
2023-01-20T03:36:40.939Z,7.54
2023-01-20T03:39:08.014Z,7.56
2023-01-20T03:42:07.896Z,7.55
2023-01-20T03:45:05.441Z,7.52
2023-01-20T03:47:42.418Z,7.44
2023-01-20T03:50:30.923Z,7.41
2023-01-20T03:53:07.666Z,7.36
2023-01-20T03:55:41.163Z,7.34
2023-01-20T03:58:13.184Z,7.32
2023-01-20T04:00:45.043Z,7.24
2023-01-20T04:03:19.339Z,7.19
2023-01-20T04:05:48.839Z,7.14
2023-01-20T04:08:18.229Z,7.13
2023-01-20T04:10:48.774Z,7.05
2023-01-20T04:13:16.391Z,7.03
2023-01-20T04:15:45.421Z,7.01
2023-01-20T04:18:18.132Z,6.98
2023-01-20T04:20:46.447Z,6.93
2023-01-20T04:23:19.985Z,6.84
2023-01-20T04:25:46.894Z,6.81
2023-01-20T04:28:13.827Z,6.83
2023-01-20T04:30:40.984Z,6.83
2023-01-20T04:33:07.954Z,6.84
2023-01-20T04:35:34.959Z,6.83
2023-01-20T04:38:05.645Z,6.79
2023-01-20T04:40:32.950Z,6.83
2023-01-20T04:42:59.905Z,6.85
2023-01-20T04:45:27.037Z,6.85
2023-01-20T04:47:54.452Z,6.86
2023-01-20T04:50:21.648Z,6.93
2023-01-20T04:52:48.988Z,6.92
2023-01-20T04:55:16.493Z,7.02
2023-01-20T04:57:43.787Z,7.09
2023-01-20T05:00:12.098Z,7.16
2023-01-20T05:02:39.549Z,7.22
2023-01-20T05:05:07.093Z,7.26
2023-01-20T05:07:34.323Z,7.31
2023-01-20T05:10:01.261Z,7.37
2023-01-20T05:12:28.812Z,7.39
2023-01-20T05:14:55.940Z,7.40
2023-01-20T05:17:23.143Z,7.36
2023-01-20T05:19:50.331Z,7.41
2023-01-20T05:22:17.529Z,7.40
2023-01-20T05:24:44.746Z,7.41
2023-01-20T05:27:12.004Z,7.40
2023-01-20T05:29:39.181Z,7.38
2023-01-20T05:32:07.272Z,7.33
2023-01-20T05:34:34.772Z,7.38
2023-01-20T05:37:02.506Z,7.39
2023-01-20T05:39:29.854Z,7.43
2023-01-20T05:41:57.563Z,7.38
2023-01-20T05:44:24.946Z,7.38
2023-01-20T05:46:52.246Z,7.35
2023-01-20T05:49:19.828Z,7.39
2023-01-20T05:51:46.998Z,7.42
2023-01-20T05:54:16.015Z,7.39
2023-01-20T05:56:44.075Z,7.37
2023-01-20T05:59:12.221Z,7.46
2023-01-20T06:01:41.220Z,7.48
2023-01-20T06:04:08.917Z,7.53
2023-01-20T06:06:36.805Z,7.61
2023-01-20T06:09:04.028Z,7.62
2023-01-20T06:11:31.493Z,7.70
2023-01-20T06:13:58.812Z,7.78
2023-01-20T06:16:26.433Z,7.80
2023-01-20T06:18:54.214Z,7.90
2023-01-20T06:21:21.779Z,7.86
2023-01-20T06:23:48.968Z,7.78
2023-01-20T06:26:16.673Z,7.88
2023-01-20T06:28:44.161Z,7.88
2023-01-20T06:31:14.955Z,8.00
2023-01-20T06:33:42.985Z,7.98
2023-01-20T06:36:13.993Z,8.02
2023-01-20T06:38:42.646Z,8.11
2023-01-20T06:41:11.635Z,8.14
2023-01-20T06:43:42.367Z,8.16
2023-01-20T06:46:15.290Z,8.20
2023-01-20T06:48:43.399Z,8.32
2023-01-20T06:51:16.827Z,8.36
2023-01-20T06:53:44.522Z,8.44
2023-01-20T06:56:16.141Z,8.57
2023-01-20T06:58:45.069Z,8.65
2023-01-20T07:01:23.175Z,8.79
2023-01-20T07:03:51.045Z,8.92
2023-01-20T07:06:27.287Z,8.95
2023-01-20T07:08:57.813Z,8.99
2023-01-20T07:11:27.013Z,9.01
2023-01-20T07:13:54.706Z,9.05
2023-01-20T07:16:22.234Z,9.09
2023-01-20T07:18:51.580Z,9.08
2023-01-20T07:21:19.622Z,9.09
2023-01-20T07:23:48.072Z,9.09
2023-01-20T07:26:21.947Z,9.12
2023-01-20T07:28:49.763Z,9.04
2023-01-20T07:31:25.914Z,9.12
2023-01-20T07:33:55.512Z,9.08
2023-01-20T07:36:22.969Z,9.11
2023-01-20T07:38:51.562Z,9.11
2023-01-20T07:41:20.760Z,9.09
2023-01-20T07:43:51.800Z,9.08
2023-01-20T07:46:20.640Z,9.10
2023-01-20T07:48:48.424Z,9.20
2023-01-20T07:51:16.786Z,9.28
2023-01-20T07:53:47.382Z,9.32
2023-01-20T07:56:18.316Z,9.33
2023-01-20T07:58:46.521Z,9.41
2023-01-20T08:01:16.934Z,9.45
2023-01-20T08:03:45.090Z,9.52
2023-01-20T08:06:15.230Z,9.61
2023-01-20T08:08:43.049Z,9.65
2023-01-20T08:11:14.276Z,9.64
2023-01-20T08:13:42.888Z,9.69
2023-01-20T08:16:14.044Z,9.80
2023-01-20T08:18:42.658Z,9.92
2023-01-20T08:21:22.683Z,9.86
2023-01-20T08:23:50.976Z,10.03
2023-01-20T08:26:20.188Z,10.11
2023-01-20T08:28:48.111Z,10.17
2023-01-20T08:31:18.857Z,10.27
2023-01-20T08:33:47.111Z,10.35
2023-01-20T08:36:18.782Z,10.39
2023-01-20T08:38:46.974Z,10.45
2023-01-20T08:41:20.583Z,10.48
2023-01-20T08:43:48.813Z,10.50
2023-01-20T08:46:17.968Z,10.63
2023-01-20T08:48:45.623Z,10.62
2023-01-20T08:51:19.567Z,10.79
2023-01-20T08:53:47.277Z,10.74
2023-01-20T08:56:15.361Z,10.56
2023-01-20T08:58:42.579Z,10.73
2023-01-20T09:01:12.474Z,10.54
2023-01-20T09:03:43.348Z,10.46
2023-01-20T09:06:13.063Z,10.29
2023-01-20T09:08:40.642Z,10.32
2023-01-20T09:11:17.675Z,10.18
2023-01-20T09:13:45.316Z,9.97
2023-01-20T09:16:14.618Z,10.00
2023-01-20T09:18:42.607Z,10.10
2023-01-20T09:21:11.160Z,10.27
2023-01-20T09:23:40.108Z,10.14
2023-01-20T09:26:08.751Z,9.91
2023-01-20T09:28:37.425Z,9.99
2023-01-20T09:31:08.095Z,9.79
2023-01-20T09:33:39.214Z,9.58
2023-01-20T09:36:09.602Z,9.75
2023-01-20T09:38:55.380Z,9.59
2023-01-20T09:41:46.108Z,9.43
2023-01-20T09:44:38.474Z,9.27
2023-01-20T09:47:21.047Z,9.34
2023-01-20T09:50:29.869Z,9.38
2023-01-20T09:53:15.898Z,9.47
2023-01-20T09:55:49.723Z,9.63
2023-01-20T09:58:48.730Z,9.67
2023-01-20T10:01:30.902Z,9.84
2023-01-20T10:04:03.997Z,9.92
2023-01-20T10:06:42.104Z,9.92
2023-01-20T10:09:12.275Z,9.90
2023-01-20T10:11:43.872Z,9.96
2023-01-20T10:14:17.945Z,10.07
2023-01-20T10:16:51.305Z,10.18
2023-01-20T10:19:29.651Z,10.17
2023-01-20T10:22:08.021Z,10.15
2023-01-20T10:25:06.583Z,10.20
2023-01-20T10:27:37.775Z,10.23
2023-01-20T10:30:10.683Z,10.14
2023-01-20T10:32:51.083Z,10.26
2023-01-20T10:35:31.660Z,10.19
2023-01-20T10:37:59.558Z,10.39
2023-01-20T10:40:45.322Z,10.47
2023-01-20T10:43:18.195Z,10.57
2023-01-20T10:46:16.102Z,10.72
2023-01-20T10:49:15.662Z,10.77
2023-01-20T10:52:24.833Z,10.80
2023-01-20T10:55:05.498Z,10.86
2023-01-20T10:57:34.346Z,10.86
2023-01-20T11:00:07.425Z,10.86
2023-01-20T11:02:38.753Z,10.88
2023-01-20T11:05:21.809Z,10.87
2023-01-20T11:07:57.095Z,10.87
2023-01-20T11:10:28.782Z,10.83
2023-01-20T11:12:59.795Z,10.85
2023-01-20T11:15:31.831Z,10.79
2023-01-20T11:18:22.595Z,10.79
2023-01-20T11:20:56.249Z,10.79
2023-01-20T11:23:38.525Z,10.78
2023-01-20T11:26:19.523Z,10.73
2023-01-20T11:28:57.975Z,10.82
2023-01-20T11:31:52.316Z,10.94
2023-01-20T11:34:35.588Z,11.06
2023-01-20T11:37:05.837Z,11.09
2023-01-20T11:39:56.712Z,11.27
2023-01-20T11:42:42.492Z,11.34
2023-01-20T11:45:32.717Z,11.49
2023-01-20T11:48:03.282Z,11.67
2023-01-20T11:50:30.944Z,11.73
2023-01-20T11:53:26.573Z,11.79
2023-01-20T11:55:58.103Z,12.02
2023-01-20T11:58:29.226Z,12.03
2023-01-20T12:01:04.668Z,12.21
2023-01-20T12:03:47.546Z,12.34
2023-01-20T12:06:29.495Z,12.39
2023-01-20T12:09:12.733Z,12.32
2023-01-20T12:12:17.232Z,12.31
2023-01-20T12:15:11.811Z,12.16
2023-01-20T12:18:11.742Z,12.27
2023-01-20T12:21:09.783Z,12.34
2023-01-20T12:24:11.825Z,12.46
2023-01-20T12:26:40.929Z,12.56
2023-01-20T12:29:37.933Z,12.66
2023-01-20T12:32:05.906Z,12.80
2023-01-20T12:34:34.858Z,12.91
2023-01-20T12:37:09.101Z,13.07
2023-01-20T12:40:17.730Z,13.23
2023-01-20T12:43:12.352Z,13.31
2023-01-20T12:46:03.953Z,13.48
2023-01-20T12:48:56.369Z,13.63
2023-01-20T12:51:26.754Z,13.80
2023-01-20T12:54:18.410Z,13.87
2023-01-20T12:56:50.286Z,13.90
2023-01-20T13:00:04.545Z,13.93
2023-01-20T13:02:46.294Z,13.85
2023-01-20T13:05:34.332Z,13.77
2023-01-20T13:08:10.426Z,13.69
2023-01-20T13:11:07.186Z,13.57
2023-01-20T13:14:09.256Z,13.37
2023-01-20T13:16:51.522Z,13.31
2023-01-20T13:19:37.532Z,13.24
2023-01-20T13:22:13.456Z,13.13
2023-01-20T13:24:45.469Z,13.01
2023-01-20T13:27:15.416Z,12.93
2023-01-20T13:30:05.766Z,12.74
2023-01-20T13:32:37.337Z,12.68
2023-01-20T13:35:23.424Z,12.59
2023-01-20T13:37:55.032Z,12.51
2023-01-20T13:40:37.916Z,12.43
2023-01-20T13:43:25.001Z,12.33
2023-01-20T13:46:16.066Z,12.16
2023-01-20T13:49:21.356Z,12.05
2023-01-20T13:51:49.034Z,11.89
2023-01-20T13:54:34.293Z,11.76
2023-01-20T13:57:28.246Z,11.62
2023-01-20T13:59:56.801Z,11.46
2023-01-20T14:05:28.061Z,11.14
2023-01-20T14:07:56.281Z,11.00
2023-01-20T14:10:23.687Z,10.87
2023-01-20T14:12:50.901Z,10.73
2023-01-20T14:15:32.306Z,10.62
2023-01-20T14:18:00.701Z,10.49
2023-01-20T14:20:29.159Z,10.34
2023-01-20T14:22:56.850Z,10.25
2023-01-20T14:25:26.882Z,10.13
2023-01-20T14:27:53.909Z,10.03
2023-01-20T14:30:25.589Z,9.91
2023-01-20T14:32:54.708Z,9.78
2023-01-20T14:35:31.673Z,9.61
2023-01-20T14:38:00.292Z,9.45
2023-01-20T14:40:35.464Z,9.36
2023-01-20T14:43:12.991Z,9.24
2023-01-20T14:45:44.298Z,9.11
2023-01-20T14:48:24.726Z,9.02
2023-01-20T14:51:03.039Z,8.88
2023-01-20T14:53:31.842Z,8.82
2023-01-20T14:56:18.050Z,8.71
2023-01-20T14:58:47.512Z,8.61
2023-01-20T15:01:23.300Z,8.55
2023-01-20T15:03:58.812Z,8.46
2023-01-20T15:06:26.633Z,8.37
2023-01-20T15:09:06.148Z,8.33
2023-01-20T15:11:34.338Z,8.30
2023-01-20T15:14:01.372Z,8.22
2023-01-20T15:16:44.163Z,8.18
2023-01-20T15:19:17.542Z,8.14
2023-01-20T15:21:49.096Z,8.11
2023-01-20T15:24:24.350Z,8.07
2023-01-20T15:26:55.842Z,8.03
2023-01-20T15:29:31.545Z,8.00
2023-01-20T15:32:09.596Z,7.93
2023-01-20T15:34:36.814Z,7.92
2023-01-20T15:37:11.914Z,7.86
2023-01-20T15:39:39.008Z,7.84
2023-01-20T15:42:06.737Z,7.82
2023-01-20T15:44:33.784Z,7.80
2023-01-20T15:47:01.019Z,7.78
2023-01-20T15:49:28.070Z,7.76
2023-01-20T15:51:54.970Z,7.72
2023-01-20T15:54:22.092Z,7.70
2023-01-20T15:56:49.248Z,7.64
2023-01-20T15:59:21.115Z,7.63
2023-01-20T16:01:50.316Z,7.61
2023-01-20T16:04:17.815Z,7.60
2023-01-20T16:06:45.437Z,7.57
2023-01-20T16:09:30.027Z,7.55
2023-01-20T16:11:57.132Z,7.50
2023-01-20T16:14:24.334Z,7.43
2023-01-20T16:16:51.297Z,7.40
2023-01-20T16:19:18.286Z,7.35
2023-01-20T16:21:45.824Z,7.28
2023-01-20T16:24:13.267Z,7.23
2023-01-20T16:26:42.282Z,7.17
2023-01-20T16:29:09.477Z,7.13
2023-01-20T16:31:36.746Z,7.09
2023-01-20T16:34:04.522Z,7.06
2023-01-20T16:36:31.556Z,7.04
2023-01-20T16:38:58.676Z,7.01
2023-01-20T16:41:28.117Z,6.96
2023-01-20T16:43:56.017Z,6.96
2023-01-20T16:46:25.693Z,6.87
2023-01-20T16:49:11.205Z,6.90
2023-01-20T16:51:38.334Z,6.82
2023-01-20T16:54:05.456Z,6.76
2023-01-20T16:56:32.843Z,6.73
2023-01-20T16:59:01.906Z,6.67
2023-01-20T17:01:31.395Z,6.66
2023-01-20T17:04:00.980Z,6.61
2023-01-20T17:06:31.042Z,6.55
2023-01-20T17:08:59.731Z,6.51
2023-01-20T17:11:37.289Z,6.48
2023-01-20T17:14:06.818Z,6.41
2023-01-20T17:16:34.202Z,6.38
2023-01-20T17:19:01.752Z,6.34
2023-01-20T17:21:31.127Z,6.32
2023-01-20T17:24:01.569Z,6.29
2023-01-20T17:26:29.034Z,6.26
2023-01-20T17:28:57.881Z,6.23
2023-01-20T17:31:25.529Z,6.18
2023-01-20T17:33:52.520Z,6.15
2023-01-20T17:36:20.655Z,6.11
2023-01-20T17:38:47.703Z,6.06
2023-01-20T17:41:15.566Z,5.99
2023-01-20T17:43:46.666Z,5.95
2023-01-20T17:46:16.784Z,5.94
2023-01-20T17:48:44.974Z,5.92
2023-01-20T17:51:17.029Z,5.86
2023-01-20T17:53:44.920Z,5.80
2023-01-20T17:56:13.975Z,5.76
2023-01-20T17:58:43.279Z,5.72
2023-01-20T18:01:16.836Z,5.69
2023-01-20T18:03:45.187Z,5.63
2023-01-20T18:06:14.758Z,5.59
2023-01-20T18:08:42.733Z,5.56
2023-01-20T18:11:12.459Z,5.48
2023-01-20T18:13:39.388Z,5.43
2023-01-20T18:16:11.966Z,5.39
2023-01-20T18:18:40.077Z,5.36
2023-01-20T18:21:09.277Z,5.32
2023-01-20T18:23:39.031Z,5.25
2023-01-20T18:26:07.247Z,5.20
2023-01-20T18:28:35.264Z,5.17
2023-01-20T18:31:11.889Z,5.14
2023-01-20T18:33:45.402Z,5.08
2023-01-20T18:36:15.192Z,5.02
2023-01-20T18:38:45.635Z,4.97
2023-01-20T18:41:14.501Z,4.94
2023-01-20T18:43:41.839Z,4.87
2023-01-20T18:46:09.853Z,4.86
2023-01-20T18:48:46.105Z,4.85
2023-01-20T18:51:15.185Z,4.85
2023-01-20T18:53:47.233Z,4.81
2023-01-20T18:56:16.070Z,4.78
2023-01-20T18:58:47.431Z,4.74
2023-01-20T19:01:21.124Z,4.76
2023-01-20T19:03:50.161Z,4.79
2023-01-20T19:06:20.092Z,4.79
2023-01-20T19:08:50.458Z,4.76
2023-01-20T19:11:23.218Z,4.72
2023-01-20T19:13:51.268Z,4.70
2023-01-20T19:16:19.884Z,4.63
2023-01-20T19:18:52.191Z,4.60
2023-01-20T19:21:19.645Z,4.59
2023-01-20T19:23:59.760Z,4.62
2023-01-20T19:26:28.892Z,4.60
2023-01-20T19:29:06.032Z,4.58
2023-01-20T19:31:35.598Z,4.54
2023-01-20T19:34:02.660Z,4.57
2023-01-20T19:36:30.017Z,4.52
2023-01-20T19:38:57.182Z,4.50
2023-01-20T19:41:29.959Z,4.50
2023-01-20T19:43:58.755Z,4.47
2023-01-20T19:46:28.625Z,4.43
2023-01-20T19:48:57.658Z,4.38
2023-01-20T19:51:25.438Z,4.41
2023-01-20T19:53:58.180Z,4.38
2023-01-20T19:56:26.564Z,4.38
2023-01-20T19:58:57.804Z,4.32
2023-01-20T20:01:30.643Z,4.30
2023-01-20T20:03:59.270Z,4.30
2023-01-20T20:06:28.356Z,4.27
2023-01-20T20:09:10.645Z,4.27
2023-01-20T20:11:38.451Z,4.27
2023-01-20T20:14:07.170Z,4.27
2023-01-20T20:16:36.590Z,4.27
2023-01-20T20:19:05.063Z,4.23
2023-01-20T20:21:32.163Z,4.20
2023-01-20T20:24:01.571Z,4.19
2023-01-20T20:26:31.422Z,4.15
2023-01-20T20:28:59.970Z,4.18
2023-01-20T20:31:29.689Z,4.12
2023-01-20T20:33:58.651Z,4.09
2023-01-20T20:36:28.376Z,4.07
2023-01-20T20:38:58.598Z,4.00
2023-01-20T20:41:29.202Z,3.90
2023-01-20T20:43:57.031Z,3.87
2023-01-20T20:46:24.549Z,3.83
2023-01-20T20:48:56.400Z,3.79
2023-01-20T20:51:26.585Z,3.75
2023-01-20T20:53:55.837Z,3.69
2023-01-20T20:56:23.403Z,3.64
2023-01-20T20:59:01.374Z,3.61
2023-01-20T21:01:31.300Z,3.53
2023-01-20T21:04:00.868Z,3.46
2023-01-20T21:06:29.071Z,3.41
2023-01-20T21:08:56.219Z,3.35
2023-01-20T21:11:24.207Z,3.34
2023-01-20T21:13:51.806Z,3.29
2023-01-20T21:16:22.918Z,3.23
2023-01-20T21:18:52.432Z,3.18
2023-01-20T21:21:20.192Z,3.11
2023-01-20T21:23:52.602Z,3.08
2023-01-20T21:26:20.445Z,3.03
2023-01-20T21:28:49.406Z,2.99
2023-01-20T21:31:26.705Z,2.95
2023-01-20T21:33:57.078Z,2.91
2023-01-20T21:36:25.375Z,2.88
2023-01-20T21:38:52.340Z,2.84
2023-01-20T21:41:19.813Z,2.83
2023-01-20T21:44:07.734Z,2.79
2023-01-20T21:46:39.028Z,2.77
2023-01-20T21:49:26.047Z,2.73
2023-01-20T21:52:12.112Z,2.74
2023-01-20T21:54:40.688Z,2.72
2023-01-20T21:57:07.780Z,2.69
2023-01-20T21:59:34.602Z,2.67
2023-01-20T22:02:01.631Z,2.66
2023-01-20T22:04:28.611Z,2.67
2023-01-20T22:06:55.551Z,2.64
2023-01-20T22:09:22.421Z,2.62
2023-01-20T22:11:50.098Z,2.61
2023-01-20T22:14:17.034Z,2.58
2023-01-20T22:16:44.074Z,2.58
2023-01-20T22:19:14.661Z,2.56
2023-01-20T22:21:42.078Z,2.52
2023-01-20T22:24:10.075Z,2.52
2023-01-20T22:26:37.198Z,2.52
2023-01-20T22:29:04.111Z,2.50
2023-01-20T22:31:32.150Z,2.43
2023-01-20T22:33:59.447Z,2.41
2023-01-20T22:36:26.438Z,2.40
2023-01-20T22:38:53.655Z,2.34
2023-01-20T22:41:21.601Z,2.36
2023-01-20T22:43:50.814Z,2.34
2023-01-20T22:46:20.775Z,2.33
2023-01-20T22:48:48.045Z,2.33
2023-01-20T22:51:20.238Z,2.30
2023-01-20T22:53:47.453Z,2.26
2023-01-20T22:56:20.006Z,2.24
2023-01-20T22:58:47.395Z,2.25
2023-01-20T23:01:16.659Z,2.27
2023-01-20T23:03:44.198Z,2.24
2023-01-20T23:06:11.950Z,2.22
2023-01-20T23:08:39.423Z,2.19
2023-01-20T23:11:10.027Z,2.16
2023-01-20T23:13:38.747Z,2.16
2023-01-20T23:16:10.158Z,2.19
2023-01-20T23:18:37.355Z,2.17
2023-01-20T23:21:06.071Z,2.12
2023-01-20T23:23:33.696Z,2.16
2023-01-20T23:26:21.933Z,2.12
2023-01-20T23:28:50.609Z,2.16
2023-01-20T23:31:17.947Z,2.15
2023-01-20T23:33:45.301Z,2.07
2023-01-20T23:36:22.106Z,2.12
2023-01-20T23:38:49.693Z,2.12
2023-01-20T23:41:17.124Z,2.12
2023-01-20T23:43:44.337Z,2.11
2023-01-20T23:46:11.838Z,2.12
2023-01-20T23:48:39.348Z,2.09
2023-01-20T23:51:07.684Z,2.07
2023-01-20T23:53:38.596Z,2.09
2023-01-20T23:56:17.993Z,2.03
2023-01-20T23:58:45.916Z,2.05
